ESMSEKCH

Guest
Details From ESMS - Malmo Sturup
To EKCH - Kastrup
Flight Number -
Tags decoded
Created
Modified
Stats Distance 52 nm / 96 km
Max Altitude 0 ft / 0 m
Waypoints 4
Social Downloads 4
Likes 0
Share VATSIM

Download

Looking for another format? Having issues loading an existing format? Contact us
Advertisement - Login to hide

Notes

Requested: ESMS BABSI CH392 EKCH

Route

ESMS BABSI CH392 EKCH

ID Type Via Altitude Latitude Longitude Leg Dist Tot Dist Heading (true) Name
O ESMS APT - 0 ft / 0 m 55.52888˚ 13.37111˚ - 0 nm - Malmo Sturup
BABSI FIX - 0 ft / 0 m 55.93000˚ 13.19944˚ 24 nm 24 nm 347° / 346° -
CH392 FIX - 0 ft / 0 m 55.86278˚ 13.03722˚ 6 nm 31 nm 234° / 233° -
O EKCH APT - 0 ft / 0 m 55.61291˚ 12.64096˚ 20 nm 51 nm 222° / 222° Kastrup

Altitude Profile

Advertisement - Login to hide

ESMS

Details ICAO ESMS (MMX)
Name Malmo Sturup
Region Sweden
Timezone Europe/Stockholm (UTC+2.0)
Stats Elevation 236 ft / 72 m (AMSL)
Location 55.528883° 13.371109°
Runways 2
Magnetic Variation 4.028° E

METAR

ESMS 221950Z 20003KT CAVOK 14/08 Q1019

Decode

TAF

TAF ESMS 221702Z 2218/2318 14008KT CAVOK

Decode

Departure Runways

ID Width Length Bearing (true) Bearing (mag) Surface Threshold Offset Overrun Length
11 59 ft / 18 m 2,609 ft / 795 m 105.31° 101.28° Asphalt 0 ft / 0 m 0 ft / 0 m
17 148 ft / 45 m 9,176 ft / 2,797 m 173.36° 169.33° Asphalt 0 ft / 0 m 98 ft / 30 m
29 59 ft / 18 m 2,609 ft / 795 m 285.32° 281.29° Asphalt 0 ft / 0 m 0 ft / 0 m
35 148 ft / 45 m 9,176 ft / 2,797 m 353.37° 349.34° Asphalt 0 ft / 0 m 98 ft / 30 m

EKCH

Details ICAO EKCH (CPH)
Name Kastrup
Region Denmark / Faroe Islands
Timezone Europe/Copenhagen (UTC+2.0)
Stats Elevation 17 ft / 5 m (AMSL)
Location 55.612915° 12.640961°
Runways 3
Magnetic Variation 3.788° E

METAR

EKCH 221950Z 22004KT CAVOK 13/10 Q1019 NOSIG

Decode

TAF

TAF EKCH 221101Z 2212/2312 07008KT CAVOK= TAF EKBI 221059Z 2212/2312 09008KT CAVOK

Decode

Destination Runways

ID Width Length Bearing (true) Bearing (mag) Surface Threshold Offset Overrun Length
04L 148 ft / 45 m 11,848 ft / 3,611 m 41.15° 37.36° Asphalt 0 ft / 0 m 0 ft / 0 m
04R 148 ft / 45 m 10,814 ft / 3,296 m 41.15° 37.36° Asphalt 0 ft / 0 m 0 ft / 0 m
12 148 ft / 45 m 10,047 ft / 3,063 m 123.21° 119.42° Asphalt 2,313 ft / 705 m 0 ft / 0 m
22L 148 ft / 45 m 10,814 ft / 3,296 m 221.17° 217.38° Asphalt 0 ft / 0 m 0 ft / 0 m
22R 148 ft / 45 m 11,848 ft / 3,611 m 221.18° 217.39° Asphalt 2,018 ft / 615 m 0 ft / 0 m
30 148 ft / 45 m 10,047 ft / 3,063 m 303.25° 299.46° Asphalt 886 ft / 270 m 0 ft / 0 m

Approach Navaids

Runway Type Ident Frequency Range Bearing (true) Bearing (mag) Slope Elevation
04L Localiser CH 110.50 MHz 18 nm / 33 km 41.16° 37.37° - 17 ft / 5 m (AMSL)
04L Glidescope CH 110.50 MHz 10 nm / 19 km 41.16° 37.37° 3.00° 17 ft / 5 m (AMSL)
04L DME CH 110.50 MHz 18 nm / 33 km - - - 14 ft / 4 m (AMSL)
04R Localiser NE 109.30 MHz 18 nm / 33 km 41.18° 37.39° - 17 ft / 5 m (AMSL)
04R Glidescope NE 109.30 MHz 10 nm / 19 km 41.16° 37.37° 3.00° 17 ft / 5 m (AMSL)
12 Localiser KA 109.90 MHz 18 nm / 33 km 123.25° 119.46° - 17 ft / 5 m (AMSL)
12 Glidescope KA 109.90 MHz 10 nm / 19 km 123.23° 119.44° 3.00° 17 ft / 5 m (AMSL)
12 DME KA 109.90 MHz 18 nm / 33 km - - - 14 ft / 4 m (AMSL)
22L Localiser OXS 109.50 MHz 18 nm / 33 km 221.14° 217.35° - 17 ft / 5 m (AMSL)
22L Glidescope OXS 109.50 MHz 10 nm / 19 km 221.16° 217.37° 3.00° 17 ft / 5 m (AMSL)
22L DME OXS 109.50 MHz 18 nm / 33 km - - - 7 ft / 2 m (AMSL)
22R Localiser KLK 110.90 MHz 18 nm / 33 km 221.14° 217.36° - 17 ft / 5 m (AMSL)
22R Glidescope KLK 110.90 MHz 10 nm / 19 km 221.16° 217.37° 3.00° 17 ft / 5 m (AMSL)
22R DME KLK 110.90 MHz 18 nm / 33 km - - - 14 ft / 4 m (AMSL)
30 Localiser OY 108.90 MHz 18 nm / 33 km 303.23° 299.44° - 17 ft / 5 m (AMSL)
30 Glidescope OY 108.90 MHz 10 nm / 19 km 303.23° 299.44° 3.00° 17 ft / 5 m (AMSL)
30 DME OY 108.90 MHz 18 nm / 33 km - - - 9 ft / 3 m (AMSL)

Popular Alternatives